Time;durP1;ratioP1;P1;durP2;ratioP2;P2;SDS_P1;SDS_P2;PMS_P1;PMS_P2;Temp;Humidity;BMP_temperature;BMP_pressure;BME280_temperature;BME280_humidity;BME280_pressure;Samples;Min_cycle;Max_cycle;Signal;HPM_P1;HPM_P2
2021/04/03 00:01:22;;;;;;;15.87;7.17;;;;;;;6.28;72.03;100380.84;3466332;83;26110;-81
2021/04/03 00:06:23;;;;;;;14.93;6.33;;;;;;;6.17;72.30;100386.00;3484903;80;98256;-81
2021/04/03 00:11:24;;;;;;;14.33;5.80;;;;;;;6.07;72.40;100385.72;3458895;84;26333;-81
2021/04/03 00:16:25;;;;;;;15.60;5.57;;;;;;;5.97;72.71;100391.12;3449590;84;98069;-82
2021/04/03 00:21:26;;;;;;;13.83;5.30;;;;;;;5.86;73.02;100391.94;3458732;82;26662;-80
2021/04/03 00:26:26;;;;;;;16.23;5.67;;;;;;;5.76;73.60;100383.64;3447984;83;98280;-81
2021/04/03 00:31:27;;;;;;;15.97;5.23;;;;;;;5.71;73.37;100394.80;3520887;81;33074;-81
2021/04/03 00:36:29;;;;;;;17.37;4.77;;;;;;;5.69;73.50;100383.44;3521158;79;98182;-82
2021/04/03 00:41:29;;;;;;;16.03;5.23;;;;;;;5.70;73.43;100390.48;3518081;82;33061;-82
2021/04/03 00:46:30;;;;;;;14.70;5.00;;;;;;;5.72;73.34;100392.29;3512790;81;98783;-81
2021/04/03 00:51:31;;;;;;;19.63;5.60;;;;;;;5.71;73.17;100393.44;3520388;82;33013;-82
2021/04/03 00:56:32;;;;;;;16.73;5.77;;;;;;;5.74;73.03;100396.05;3508287;81;98593;-81
2021/04/03 01:01:33;;;;;;;17.13;5.83;;;;;;;5.73;72.68;100393.09;3518556;81;34194;-83
2021/04/03 01:06:34;;;;;;;18.03;5.50;;;;;;;5.69;72.55;100399.82;3513621;79;98535;-82
2021/04/03 01:11:39;;;;;;;12.30;4.27;;;;;;;5.52;72.40;100399.28;3524567;82;32072;-82
2021/04/03 01:16:57;;;;;;;10.10;3.90;;;;;;;5.34;72.27;100403.41;3521260;79;98502;-81
2021/04/03 01:22:34;;;;;;;14.47;4.27;;;;;;;5.18;72.33;100403.87;3496125;82;32954;-81
2021/04/03 01:27:40;;;;;;;14.07;5.83;;;;;;;5.01;72.34;100405.42;3492244;82;31774;-80
2021/04/03 01:33:10;;;;;;;11.10;3.77;;;;;;;4.83;72.65;100397.24;3516862;81;98389;-81
2021/04/03 01:38:31;;;;;;;9.63;4.03;;;;;;;4.68;72.84;100392.45;3536630;81;31805;-81
2021/04/03 01:43:39;;;;;;;15.35;4.92;;;;;;;4.52;72.98;100396.95;3505936;81;98048;-81
2021/04/03 01:48:43;;;;;;;10.90;4.03;;;;;;;4.47;73.26;100399.92;3523289;82;31742;-81
2021/04/03 01:53:45;;;;;;;15.07;4.10;;;;;;;4.44;73.42;100400.58;3508513;80;98332;-81
2021/04/03 01:58:47;;;;;;;10.63;4.13;;;;;;;4.46;73.45;100410.56;3532130;82;31728;-82
2021/04/03 02:03:49;;;;;;;11.05;4.28;;;;;;;4.44;73.26;100410.92;3524128;81;98605;-81
2021/04/03 02:08:51;;;;;;;15.23;5.27;;;;;;;4.40;73.35;100404.55;3531201;81;31696;-81
2021/04/03 02:13:54;;;;;;;12.47;4.50;;;;;;;4.34;73.43;100413.27;3537452;80;98266;-81
2021/04/03 02:18:56;;;;;;;12.80;4.43;;;;;;;4.22;73.56;100416.76;3559512;81;32387;-81
2021/04/03 02:23:58;;;;;;;12.87;4.50;;;;;;;4.12;73.68;100415.00;3562577;80;98629;-81
2021/04/03 02:28:59;;;;;;;14.77;4.87;;;;;;;3.98;73.65;100425.39;3567422;81;31888;-81
2021/04/03 02:34:01;;;;;;;13.13;5.07;;;;;;;3.82;73.87;100432.56;3562346;79;98733;-80
2021/04/03 02:39:02;;;;;;;10.73;4.17;;;;;;;3.66;74.50;100436.42;3571461;81;31824;-80
2021/04/03 02:44:34;;;;;;;10.70;4.57;;;;;;;3.56;74.85;100433.30;3538637;81;98447;-80
2021/04/03 02:49:43;;;;;;;13.60;4.83;;;;;;;3.51;75.22;100435.66;3573449;80;31899;-82
2021/04/03 02:54:46;;;;;;;9.37;4.03;;;;;;;3.50;75.38;100442.20;3562030;80;98564;-80
2021/04/03 02:59:52;;;;;;;14.27;5.47;;;;;;;3.46;75.57;100440.48;3563366;81;32246;-81
2021/04/03 03:04:55;;;;;;;13.80;4.87;;;;;;;3.45;75.77;100443.75;3559677;81;98591;-80
2021/04/03 03:09:57;;;;;;;13.93;5.20;;;;;;;3.49;75.42;100448.77;3573234;80;26024;-81
2021/04/03 03:15:00;;;;;;;17.60;5.03;;;;;;;3.47;75.44;100459.20;3498567;81;98658;-81
2021/04/03 03:20:03;;;;;;;18.57;5.40;;;;;;;3.40;75.34;100459.48;3518026;82;32370;-81
2021/04/03 03:25:06;;;;;;;16.63;4.87;;;;;;;3.30;75.45;100459.84;3493366;81;98375;-82
2021/04/03 03:30:09;;;;;;;17.53;5.60;;;;;;;3.18;75.52;100467.91;3517943;81;32819;-81
2021/04/03 03:35:12;;;;;;;12.03;5.47;;;;;;;3.09;76.00;100466.59;3517221;80;99162;-80
2021/04/03 03:40:15;;;;;;;12.37;4.73;;;;;;;3.05;76.04;100464.28;3523750;82;33043;-80
2021/04/03 03:45:18;;;;;;;12.60;5.20;;;;;;;3.09;76.16;100479.38;3504181;81;98474;-80
2021/04/03 03:50:18;;;;;;;13.97;5.60;;;;;;;3.12;76.28;100482.23;3531993;81;31982;-81
2021/04/03 03:55:19;;;;;;;20.05;9.13;;;;;;;3.13;76.38;100478.97;3516045;80;98574;-81
2021/04/03 04:00:20;;;;;;;13.87;6.40;;;;;;;3.06;76.46;100482.19;3489585;82;31833;-81
2021/04/03 04:05:21;;;;;;;16.67;6.77;;;;;;;2.95;76.62;100482.30;3490809;82;98502;-81
2021/04/03 04:10:22;;;;;;;18.83;7.33;;;;;;;2.80;77.01;100489.61;3489316;83;31670;-81
2021/04/03 04:15:23;;;;;;;15.23;6.40;;;;;;;2.66;77.32;100489.02;3511234;80;98374;-81
2021/04/03 04:20:24;;;;;;;17.03;7.23;;;;;;;2.54;77.73;100498.41;3498130;83;25950;-81
2021/04/03 04:25:24;;;;;;;15.10;6.57;;;;;;;2.48;78.32;100492.09;3500704;80;98423;-81
2021/04/03 04:30:27;;;;;;;19.10;7.13;;;;;;;2.49;78.41;100501.28;3503749;82;35049;-81
2021/04/03 04:35:28;;;;;;;20.62;7.62;;;;;;;2.51;78.78;100488.16;3494026;80;98410;-81
2021/04/03 04:40:29;;;;;;;18.13;6.97;;;;;;;2.56;79.30;100497.51;3503694;82;35461;-81
2021/04/03 04:45:30;;;;;;;22.80;8.80;;;;;;;2.60;79.05;100496.30;3482135;82;98547;-81
2021/04/03 04:50:30;;;;;;;15.07;6.53;;;;;;;2.55;79.31;100509.50;3506019;82;35342;-80
2021/04/03 04:55:31;;;;;;;25.33;9.63;;;;;;;2.54;79.49;100517.97;3505757;80;98482;-81
2021/04/03 05:00:32;;;;;;;20.77;8.40;;;;;;;2.46;79.91;100537.22;3565192;81;35014;-81
2021/04/03 05:05:33;;;;;;;19.17;9.03;;;;;;;2.38;80.61;100536.68;3542214;80;98186;-81
2021/04/03 05:10:34;;;;;;;21.37;8.83;;;;;;;2.33;80.85;100550.41;3559840;80;35153;-81
2021/04/03 05:15:35;;;;;;;22.73;9.03;;;;;;;2.35;81.02;100550.88;3548191;81;98131;-81
2021/04/03 05:20:36;;;;;;;19.37;8.73;;;;;;;2.41;81.33;100552.31;3550494;81;32758;-81
2021/04/03 05:25:37;;;;;;;19.73;9.27;;;;;;;2.49;81.71;100556.97;3436017;83;98567;-82
2021/04/03 05:30:37;;;;;;;24.53;8.77;;;;;;;2.61;81.84;100553.59;3488618;83;32993;-81
2021/04/03 05:35:39;;;;;;;21.63;9.30;;;;;;;2.67;81.98;100549.61;3477669;83;98332;-81
2021/04/03 05:40:40;;;;;;;20.90;8.90;;;;;;;2.73;82.38;100546.97;3479786;83;32727;-80
2021/04/03 05:45:43;;;;;;;19.53;9.27;;;;;;;2.80;82.42;100555.42;3554651;80;98395;-81
2021/04/03 05:50:45;;;;;;;21.20;9.03;;;;;;;2.87;82.72;100555.72;3558874;81;33698;-82
2021/04/03 05:55:45;;;;;;;18.90;8.37;;;;;;;2.94;83.45;100564.98;3544337;81;98197;-80
2021/04/03 06:00:47;;;;;;;21.53;7.70;;;;;;;3.04;83.27;100563.83;3536732;81;32680;-81
2021/04/03 06:05:49;;;;;;;15.77;8.50;;;;;;;3.14;82.99;100573.01;3522018;82;98176;-81
2021/04/03 06:11:17;;;;;;;18.43;8.53;;;;;;;3.27;82.95;100582.33;3529829;82;32696;-81
2021/04/03 06:16:37;;;;;;;19.97;8.23;;;;;;;3.42;82.80;100589.97;3522668;81;98177;-82
2021/04/03 06:21:42;;;;;;;26.93;11.77;;;;;;;3.55;82.62;100594.97;3493292;83;33238;-82
2021/04/03 06:26:53;;;;;;;21.73;11.63;;;;;;;3.62;82.23;100602.87;3570971;80;98207;-82
2021/04/03 06:31:56;;;;;;;44.27;19.00;;;;;;;3.71;82.34;100613.72;3512272;82;33249;-82
2021/04/03 06:36:58;;;;;;;21.90;10.35;;;;;;;3.82;82.13;100610.28;3508920;81;98496;-84
2021/04/03 06:41:59;;;;;;;23.40;11.90;;;;;;;3.93;82.00;100621.62;3514963;81;32746;-83
2021/04/03 06:47:01;;;;;;;16.83;7.70;;;;;;;4.01;82.01;100636.55;3512432;81;98155;-83
2021/04/03 06:52:03;;;;;;;22.33;8.87;;;;;;;4.05;82.07;100627.94;3519377;81;32715;-83
2021/04/03 06:57:05;;;;;;;21.47;9.47;;;;;;;4.21;82.32;100636.36;3509193;81;97890;-82
2021/04/03 07:02:08;;;;;;;19.03;7.27;;;;;;;4.32;81.90;100636.98;3491248;83;33111;-82
2021/04/03 07:07:10;;;;;;;20.47;8.63;;;;;;;4.38;81.78;100640.34;3482300;81;98425;-83
2021/04/03 07:12:12;;;;;;;19.67;8.50;;;;;;;4.50;81.80;100643.13;3491504;83;33085;-82
2021/04/03 07:17:15;;;;;;;23.03;10.40;;;;;;;4.69;81.82;100646.22;3491447;82;98200;-83
2021/04/03 07:22:17;;;;;;;22.70;9.53;;;;;;;4.85;81.15;100645.27;3495731;83;30932;-83
2021/04/03 07:27:21;;;;;;;19.55;9.00;;;;;;;4.97;81.01;100659.53;3488186;81;98195;-82
2021/04/03 07:32:42;;;;;;;21.43;9.13;;;;;;;5.07;80.62;100655.82;3488075;81;98587;-84
2021/04/03 07:37:43;;;;;;;28.70;12.40;;;;;;;5.17;80.38;100655.97;3499149;83;32734;-82
2021/04/03 07:42:44;;;;;;;18.73;10.03;;;;;;;5.34;80.21;100655.83;3481711;82;98505;-82
2021/04/03 07:47:48;;;;;;;15.20;6.40;;;;;;;5.50;80.00;100664.94;3498591;82;33213;-83
2021/04/03 07:52:55;;;;;;;19.43;8.03;;;;;;;5.75;79.70;100671.52;3489552;82;98515;-82
2021/04/03 07:58:32;;;;;;;23.13;10.33;;;;;;;6.05;78.99;100673.52;3521328;81;33330;-83
2021/04/03 08:03:33;;;;;;;20.88;8.20;;;;;;;6.32;78.38;100677.71;3514841;81;98601;-83
2021/04/03 08:08:40;;;;;;;21.77;10.93;;;;;;;6.63;77.96;100680.66;3519022;82;32715;-83
2021/04/03 08:13:46;;;;;;;16.42;7.20;;;;;;;6.93;77.45;100690.15;3488053;81;98528;-83
2021/04/03 08:18:54;;;;;;;17.17;6.70;;;;;;;7.26;76.61;100687.20;3500120;82;26048;-84
2021/04/03 08:23:58;;;;;;;11.12;4.50;;;;;;;7.44;75.31;100693.41;3517634;81;98715;-84
2021/04/03 08:28:59;;;;;;;15.37;6.60;;;;;;;7.70;75.20;100690.18;3515770;82;32775;-84
2021/04/03 08:34:04;;;;;;;11.17;5.47;;;;;;;7.98;74.73;100695.83;3510039;82;98472;-86
2021/04/03 08:39:09;;;;;;;11.17;4.77;;;;;;;8.28;73.63;100692.88;3519985;81;30832;-84
2021/04/03 08:44:19;;;;;;;12.97;5.07;;;;;;;8.70;73.82;100699.38;3516456;81;98426;-85
2021/04/03 08:49:36;;;;;;;7.07;3.20;;;;;;;9.02;71.84;100699.50;3523917;82;25920;-84
2021/04/03 08:54:44;;;;;;;8.00;3.10;;;;;;;9.51;70.98;100707.39;3510074;81;98251;-84
2021/04/03 08:59:45;;;;;;;7.60;3.73;;;;;;;9.86;69.10;100702.55;3516873;82;26725;-86
2021/04/03 09:04:46;;;;;;;10.70;3.47;;;;;;;10.47;69.96;100707.95;3516148;81;100462;-85
2021/04/03 09:09:52;;;;;;;6.07;2.53;;;;;;;11.26;68.91;100711.66;3526896;81;33392;-85
2021/04/03 09:14:54;;;;;;;10.43;4.45;;;;;;;11.91;66.58;100711.45;3554129;80;98583;-84
2021/04/03 09:20:11;;;;;;;10.50;4.50;;;;;;;12.37;64.57;100721.53;3523006;82;26975;-86
2021/04/03 09:25:22;;;;;;;12.82;5.87;;;;;;;12.92;62.58;100714.84;3520065;82;98499;-83
2021/04/03 09:30:35;;;;;;;10.63;4.10;;;;;;;13.15;63.24;100714.00;3502864;82;26793;-85
2021/04/03 09:35:36;;;;;;;3.67;1.65;;;;;;;13.69;62.02;100711.06;3534922;81;99717;-86
2021/04/03 09:40:45;;;;;;;5.63;2.07;;;;;;;14.13;59.94;100708.78;3527889;81;28336;-86
2021/04/03 09:45:46;;;;;;;4.75;2.15;;;;;;;14.27;55.63;100708.81;3513598;81;98129;-85
2021/04/03 09:50:47;;;;;;;16.63;8.53;;;;;;;13.93;56.20;100722.78;3566068;81;31761;-85
2021/04/03 09:55:48;;;;;;;14.97;7.80;;;;;;;13.88;56.76;100726.73;3496166;81;98697;-87
2021/04/03 10:00:49;;;;;;;9.47;4.20;;;;;;;13.42;58.00;100740.20;3497292;83;26027;-85
2021/04/03 10:05:50;;;;;;;12.20;4.63;;;;;;;12.93;58.25;100742.05;3490323;80;99797;-86
2021/04/03 10:10:51;;;;;;;10.70;4.23;;;;;;;12.61;59.46;100745.78;3474664;83;32739;-86
2021/04/03 10:15:51;;;;;;;8.40;4.60;;;;;;;12.29;59.67;100749.66;3493956;83;98584;-86
2021/04/03 10:20:52;;;;;;;6.73;3.00;;;;;;;12.09;60.87;100751.60;3492111;83;32717;-85
2021/04/03 10:25:53;;;;;;;7.40;3.20;;;;;;;11.81;60.42;100750.73;3484059;80;98671;-85
2021/04/03 10:30:54;;;;;;;8.03;3.60;;;;;;;11.73;60.56;100752.41;3562461;81;32727;-85
2021/04/03 10:35:56;;;;;;;10.47;5.03;;;;;;;11.74;61.61;100757.56;3516530;81;98178;-84
2021/04/03 10:40:56;;;;;;;9.60;4.70;;;;;;;11.78;60.12;100749.32;3525554;81;26817;-83
2021/04/03 10:46:00;;;;;;;12.90;5.87;;;;;;;11.66;61.70;100750.96;3515645;81;98761;-85
2021/04/03 10:51:03;;;;;;;16.07;6.97;;;;;;;11.73;60.92;100748.28;3516016;82;28374;-84
2021/04/03 10:56:04;;;;;;;14.97;6.50;;;;;;;11.70;61.55;100751.77;3484400;81;98952;-84
2021/04/03 11:01:05;;;;;;;8.60;3.80;;;;;;;11.57;60.39;100738.82;3513931;82;26911;-84
2021/04/03 11:06:06;;;;;;;14.93;7.08;;;;;;;11.48;59.66;100743.01;3562882;80;98798;-84
2021/04/03 11:11:10;;;;;;;6.47;3.33;;;;;;;11.41;59.67;100738.80;3510030;81;26545;-83
2021/04/03 11:16:11;;;;;;;9.40;4.13;;;;;;;11.35;59.40;100734.78;3501285;81;98551;-84
2021/04/03 11:21:12;;;;;;;8.48;3.02;;;;;;;11.26;59.01;100733.69;3510699;82;26298;-83
2021/04/03 11:26:12;;;;;;;7.90;3.57;;;;;;;11.29;59.08;100732.93;3500805;81;98382;-84
2021/04/03 11:31:13;;;;;;;10.63;4.70;;;;;;;11.63;58.94;100735.97;3573641;80;26483;-85
2021/04/03 11:36:14;;;;;;;8.73;4.10;;;;;;;11.84;58.20;100728.50;3499800;80;98770;-84
2021/04/03 11:41:15;;;;;;;6.42;2.60;;;;;;;11.84;57.30;100734.80;3509602;82;26026;-84
2021/04/03 11:46:16;;;;;;;6.33;2.87;;;;;;;11.44;56.37;100747.70;3503033;81;98550;-86
2021/04/03 11:51:19;;;;;;;3.40;1.40;;;;;;;11.24;56.82;100775.95;3485673;82;26706;-84
2021/04/03 11:56:21;;;;;;;2.87;1.03;;;;;;;10.49;58.25;100811.56;3499295;80;98643;-86
2021/04/03 12:01:22;;;;;;;2.90;0.67;;;;;;;9.84;59.14;100820.34;3499968;82;26098;-87
2021/04/03 12:06:23;;;;;;;3.23;0.63;;;;;;;8.61;60.59;100828.30;3482039;81;98211;-88
2021/04/03 12:11:24;;;;;;;2.67;0.70;;;;;;;7.90;62.85;100837.91;3484444;82;27302;-85
2021/04/03 12:16:25;;;;;;;2.25;0.93;;;;;;;7.33;64.92;100826.46;3485035;82;98202;-86
2021/04/03 12:21:26;;;;;;;4.00;1.23;;;;;;;6.97;66.58;100810.08;3516949;82;26200;-88
2021/04/03 12:26:27;;;;;;;3.63;0.90;;;;;;;6.98;68.08;100818.52;3490606;82;98149;-85
2021/04/03 12:31:29;;;;;;;9.33;3.43;;;;;;;7.15;68.90;100821.00;3517299;82;25993;-85
2021/04/03 12:36:30;;;;;;;13.47;6.57;;;;;;;7.27;69.75;100829.78;3526488;81;98057;-86
2021/04/03 12:41:31;;;;;;;1.90;1.10;;;;;;;7.45;70.32;100818.77;3523342;82;26733;-85
2021/04/03 12:46:32;;;;;;;13.10;5.90;;;;;;;7.66;70.54;100828.42;3513295;82;97838;-87
2021/04/03 12:51:34;;;;;;;9.40;3.60;;;;;;;7.87;70.66;100826.85;3516314;82;33046;-87
2021/04/03 12:56:35;;;;;;;10.18;4.00;;;;;;;8.12;70.23;100825.61;3519420;80;98473;-87
2021/04/03 13:01:37;;;;;;;6.07;2.90;;;;;;;8.27;70.21;100816.62;3517783;82;33019;-86
2021/04/03 13:06:39;;;;;;;6.10;1.77;;;;;;;8.34;69.89;100821.72;3498017;81;97997;-86
2021/04/03 13:11:40;;;;;;;7.37;2.63;;;;;;;8.42;69.60;100827.63;3520422;81;33451;-86
2021/04/03 13:16:42;;;;;;;8.35;2.67;;;;;;;8.47;69.32;100821.88;3553012;81;98231;-86
2021/04/03 13:21:43;;;;;;;4.67;1.00;;;;;;;8.67;70.02;100826.88;3546412;81;33261;-86
2021/04/03 13:26:44;;;;;;;3.43;0.63;;;;;;;8.49;68.72;100875.80;3502260;78;98353;-87
2021/04/03 13:31:45;;;;;;;3.03;1.00;;;;;;;7.43;68.98;100876.65;3516496;81;33007;-86
2021/04/03 13:36:46;;;;;;;3.17;1.60;;;;;;;6.62;69.73;100897.03;3493500;79;98097;-86
2021/04/03 13:41:46;;;;;;;3.60;1.00;;;;;;;5.72;72.08;100909.75;3505887;81;33021;-86
2021/04/03 13:46:47;;;;;;;1.63;0.87;;;;;;;4.98;74.11;100918.87;3513209;81;97675;-87
2021/04/03 13:51:48;;;;;;;4.03;1.30;;;;;;;4.58;76.14;100914.86;3503934;82;31506;-88
2021/04/03 13:56:48;;;;;;;3.40;1.37;;;;;;;4.45;76.86;100908.47;3494916;80;98218;-88
2021/04/03 14:01:49;;;;;;;4.57;1.30;;;;;;;4.59;78.23;100915.09;3573158;80;31797;-89
2021/04/03 14:06:50;;;;;;;3.63;1.50;;;;;;;4.76;79.18;100917.17;3493846;81;98169;-86
2021/04/03 14:11:51;;;;;;;5.03;2.67;;;;;;;4.77;80.16;100911.98;3513572;81;31740;-87
2021/04/03 14:16:52;;;;;;;5.10;1.67;;;;;;;4.99;80.20;100909.00;3499850;81;98706;-88
2021/04/03 14:21:53;;;;;;;6.07;1.70;;;;;;;5.07;79.37;100899.97;3509850;82;31773;-86
2021/04/03 14:26:54;;;;;;;7.43;2.03;;;;;;;5.06;78.80;100897.01;3498840;80;97865;-87
2021/04/03 14:31:55;;;;;;;4.83;1.63;;;;;;;5.29;79.66;100912.55;3505842;80;32391;-89
2021/04/03 14:36:55;;;;;;;3.47;1.30;;;;;;;5.56;79.84;100910.69;3571663;80;98443;-88
2021/04/03 14:41:56;;;;;;;4.87;1.90;;;;;;;5.75;79.60;100916.48;3574614;81;30059;-89
2021/04/03 14:46:57;;;;;;;5.73;1.50;;;;;;;5.80;79.40;100927.23;3535385;81;97973;-89
2021/04/03 14:51:57;;;;;;;3.63;0.93;;;;;;;6.00;79.27;100923.12;3491067;81;35070;-92
2021/04/03 14:56:58;;;;;;;2.77;0.90;;;;;;;6.06;79.12;100931.34;3565802;79;98358;-88
2021/04/03 15:01:59;;;;;;;3.17;0.90;;;;;;;6.09;79.04;100927.16;3576063;80;35103;-88
2021/04/03 15:07:00;;;;;;;3.10;1.03;;;;;;;6.11;79.02;100928.41;3572765;80;98234;-86
2021/04/03 15:12:01;;;;;;;3.40;1.10;;;;;;;6.05;78.70;100926.24;3517150;81;35603;-87
2021/04/03 15:17:03;;;;;;;6.50;1.80;;;;;;;6.08;78.78;100922.83;3577174;80;98374;-86
2021/04/03 15:22:04;;;;;;;4.97;1.40;;;;;;;6.12;78.49;100916.93;3504275;82;35058;-86
2021/04/03 15:27:07;;;;;;;4.10;1.40;;;;;;;6.15;78.34;100912.95;3516682;80;97845;-86
2021/04/03 15:32:11;;;;;;;6.17;1.97;;;;;;;6.11;78.10;100922.17;3507309;81;35076;-85
2021/04/03 15:37:12;;;;;;;3.87;1.67;;;;;;;6.11;78.11;100921.58;3566249;78;98124;-84
2021/04/03 15:42:13;;;;;;;5.77;2.00;;;;;;;6.19;77.55;100930.29;3539976;81;35087;-84
2021/04/03 15:47:14;;;;;;;3.53;0.90;;;;;;;6.30;77.24;100951.97;3564499;77;98171;-85
2021/04/03 15:52:15;;;;;;;6.40;3.07;;;;;;;6.13;75.25;100969.89;3572105;80;35605;-85
2021/04/03 15:57:16;;;;;;;7.37;3.67;;;;;;;5.83;74.72;100977.90;3568298;78;98251;-86
2021/04/03 16:02:18;;;;;;;6.87;4.43;;;;;;;5.66;75.55;100978.53;3563263;81;35040;-86
2021/04/03 16:07:19;;;;;;;9.15;3.70;;;;;;;5.59;75.54;100970.89;3554383;80;97636;-86
2021/04/03 16:12:22;;;;;;;3.87;1.50;;;;;;;5.46;76.03;100956.89;3535847;79;108048;-86
2021/04/03 16:17:24;;;;;;;4.03;1.77;;;;;;;5.43;76.02;100958.13;3486195;83;35505;-85
2021/04/03 16:22:25;;;;;;;7.53;2.97;;;;;;;5.42;76.04;100949.70;3476148;82;98230;-86
2021/04/03 16:27:26;;;;;;;8.77;3.30;;;;;;;5.27;75.51;100964.72;3499850;82;34979;-86
2021/04/03 16:32:27;;;;;;;13.90;5.75;;;;;;;5.23;76.10;100964.34;3485101;82;108021;-86
2021/04/03 16:37:29;;;;;;;9.53;4.00;;;;;;;5.18;75.71;100965.89;3470681;83;35502;-85
2021/04/03 16:42:31;;;;;;;5.00;2.10;;;;;;;5.13;75.51;100967.44;3514272;81;98746;-86
2021/04/03 16:47:37;;;;;;;6.37;2.10;;;;;;;5.06;75.77;100972.58;3520865;81;35146;-86
2021/04/03 16:52:39;;;;;;;5.40;1.80;;;;;;;5.06;75.92;100978.03;3516992;81;98302;-85
2021/04/03 16:57:41;;;;;;;7.43;2.33;;;;;;;5.17;75.91;100978.72;3521507;81;36208;-85
2021/04/03 17:02:42;;;;;;;8.30;3.00;;;;;;;5.27;75.68;100987.91;3513931;81;98168;-85
2021/04/03 17:07:45;;;;;;;9.63;3.00;;;;;;;5.37;75.47;100986.73;3521784;82;35579;-85
2021/04/03 17:12:47;;;;;;;11.05;3.30;;;;;;;5.35;75.00;100996.61;3522324;80;98236;-86
2021/04/03 17:17:51;;;;;;;8.23;2.53;;;;;;;5.34;75.22;101003.20;3522911;81;35337;-85
2021/04/03 17:22:52;;;;;;;7.97;2.80;;;;;;;5.27;74.86;101004.29;3514467;80;98335;-85
2021/04/03 17:27:53;;;;;;;9.53;2.73;;;;;;;5.13;74.62;101009.14;3527192;81;35110;-87
2021/04/03 17:32:56;;;;;;;7.07;2.37;;;;;;;4.99;74.76;101024.12;3490978;80;98352;-86
2021/04/03 17:37:57;;;;;;;8.10;2.63;;;;;;;4.82;74.86;101028.25;3523104;81;35020;-85
2021/04/03 17:42:59;;;;;;;8.77;2.73;;;;;;;4.68;75.00;101038.53;3518883;80;98801;-86
2021/04/03 17:48:00;;;;;;;8.97;3.00;;;;;;;4.54;75.26;101042.02;3497885;81;35270;-86
2021/04/03 17:53:01;;;;;;;10.17;4.60;;;;;;;4.44;75.63;101040.97;3492036;80;98021;-86
2021/04/03 17:58:03;;;;;;;13.23;5.13;;;;;;;4.36;75.93;101047.23;3571901;81;35357;-87
2021/04/03 18:03:04;;;;;;;15.90;5.87;;;;;;;4.39;76.51;101063.73;3567984;81;98500;-85
2021/04/03 18:08:06;;;;;;;21.57;8.83;;;;;;;4.41;76.86;101071.02;3508529;81;35541;-87
2021/04/03 18:13:07;;;;;;;23.43;11.03;;;;;;;4.38;76.63;101069.50;3476023;81;98302;-86
2021/04/03 18:18:09;;;;;;;19.63;9.30;;;;;;;4.28;77.18;101071.17;3508005;81;35016;-86
2021/04/03 18:23:11;;;;;;;23.13;10.83;;;;;;;4.15;77.25;101076.22;3543769;78;98155;-86
2021/04/03 18:28:12;;;;;;;25.40;11.90;;;;;;;4.04;77.77;101073.56;3573038;81;35363;-87
2021/04/03 18:33:14;;;;;;;16.73;9.20;;;;;;;3.94;78.11;101088.83;3563480;81;98656;-87
2021/04/03 18:38:17;;;;;;;13.97;7.53;;;;;;;3.86;78.38;101086.88;3523891;82;35004;-86
2021/04/03 18:43:20;;;;;;;15.13;5.65;;;;;;;3.85;78.77;101090.72;3567624;80;98468;-87
2021/04/03 18:48:21;;;;;;;15.67;7.33;;;;;;;3.83;79.13;101091.61;3577523;80;35054;-86
2021/04/03 18:53:25;;;;;;;17.15;7.53;;;;;;;3.83;79.21;101086.95;3564261;80;98595;-86
2021/04/03 18:58:27;;;;;;;15.90;5.60;;;;;;;3.87;79.71;101088.50;3507731;82;35523;-86
2021/04/03 19:03:29;;;;;;;15.03;6.10;;;;;;;3.90;79.53;101083.22;3507769;79;99785;-87
2021/04/03 19:08:30;;;;;;;14.23;5.60;;;;;;;3.94;80.15;101086.89;3486040;82;35661;-87
2021/04/03 19:13:31;;;;;;;13.43;6.03;;;;;;;3.98;80.07;101086.51;3475892;79;98475;-87
2021/04/03 19:18:32;;;;;;;10.08;3.95;;;;;;;4.03;79.86;101085.00;3509781;82;35613;-87
2021/04/03 19:23:35;;;;;;;11.80;4.90;;;;;;;4.13;79.89;101092.06;3503046;80;98116;-84
2021/04/03 19:28:36;;;;;;;10.60;4.10;;;;;;;4.17;80.00;101098.48;3465603;82;35088;-86
2021/04/03 19:33:40;;;;;;;12.20;5.03;;;;;;;4.23;80.18;101104.02;3505233;79;98490;-86
2021/04/03 19:38:41;;;;;;;10.60;4.63;;;;;;;4.30;79.67;101105.16;3498523;82;35018;-86
2021/04/03 19:43:42;;;;;;;12.40;4.40;;;;;;;4.36;79.83;101109.91;3507383;81;98121;-86
2021/04/03 19:48:43;;;;;;;9.93;4.00;;;;;;;4.39;79.77;101111.98;3581245;80;35813;-86
2021/04/03 19:53:44;;;;;;;9.43;3.37;;;;;;;4.39;79.87;101110.06;3477576;79;98403;-86
2021/04/03 19:58:46;;;;;;;8.53;3.37;;;;;;;4.37;79.87;101115.02;3512649;82;35397;-86
2021/04/03 20:03:47;;;;;;;9.67;3.97;;;;;;;4.42;79.88;101123.04;3472015;82;98246;-87
2021/04/03 20:08:48;;;;;;;9.07;4.17;;;;;;;4.45;79.94;101130.59;3516332;81;35041;-86
2021/04/03 20:13:49;;;;;;;12.63;5.50;;;;;;;4.45;79.60;101130.59;3560324;80;97922;-86
2021/04/03 20:18:50;;;;;;;26.60;13.20;;;;;;;4.41;79.71;101132.34;3514982;81;35132;-85
2021/04/03 20:23:52;;;;;;;14.17;8.10;;;;;;;4.38;79.69;101126.73;3569143;80;98827;-86
2021/04/03 20:28:53;;;;;;;15.40;7.40;;;;;;;4.33;79.57;101126.88;3546263;82;35416;-86
2021/04/03 20:33:54;;;;;;;13.63;6.53;;;;;;;4.24;79.28;101124.69;3542572;80;98549;-85
2021/04/03 20:38:55;;;;;;;14.03;6.57;;;;;;;4.16;79.06;101133.08;3575249;81;35056;-86
2021/04/03 20:43:59;;;;;;;14.50;7.10;;;;;;;4.07;78.88;101133.64;3564728;80;98306;-86
2021/04/03 20:49:00;;;;;;;14.17;7.10;;;;;;;3.94;78.94;101129.67;3571186;81;34978;-86
2021/04/03 20:54:02;;;;;;;17.67;7.53;;;;;;;3.84;78.92;101143.58;3494055;81;98579;-86
2021/04/03 20:59:03;;;;;;;16.90;7.37;;;;;;;3.71;79.00;101148.58;3526153;81;35055;-86
2021/04/03 21:04:04;;;;;;;14.87;6.27;;;;;;;3.61;79.26;101159.73;3510734;81;98117;-85
2021/04/03 21:09:06;;;;;;;13.30;5.60;;;;;;;3.51;79.28;101165.44;3500891;83;35154;-86
2021/04/03 21:14:07;;;;;;;13.03;5.70;;;;;;;3.44;79.37;101162.37;3485385;81;98745;-86
2021/04/03 21:19:09;;;;;;;12.30;5.17;;;;;;;3.38;79.50;101167.70;3497378;83;35395;-84
2021/04/03 21:24:11;;;;;;;15.97;5.50;;;;;;;3.30;79.43;101168.43;3489108;83;98566;-84
2021/04/03 21:29:13;;;;;;;14.83;5.47;;;;;;;3.26;79.40;101176.41;3537527;81;36113;-84
2021/04/03 21:34:14;;;;;;;13.70;5.40;;;;;;;3.18;79.31;101175.00;3548205;79;98113;-87
2021/04/03 21:39:15;;;;;;;13.40;5.87;;;;;;;3.17;79.52;101179.62;3470475;82;35380;-85
2021/04/03 21:44:16;;;;;;;10.50;4.50;;;;;;;3.11;79.45;101174.64;3438449;81;98439;-85
2021/04/03 21:49:16;;;;;;;13.20;5.07;;;;;;;2.99;79.34;101184.70;3492245;83;35067;-87
2021/04/03 21:54:17;;;;;;;10.85;4.70;;;;;;;2.92;79.47;101186.23;3496003;81;98345;-87
2021/04/03 21:59:19;;;;;;;13.53;5.10;;;;;;;2.77;79.41;101186.58;3474391;83;35575;-87
2021/04/03 22:04:20;;;;;;;12.43;4.37;;;;;;;2.66;79.82;101180.58;3489893;81;98195;-87
2021/04/03 22:09:21;;;;;;;10.20;3.93;;;;;;;2.58;79.74;101185.94;3518195;81;35032;-87
2021/04/03 22:14:22;;;;;;;11.97;4.87;;;;;;;2.49;79.93;101179.61;3511897;82;98187;-87
2021/04/03 22:19:23;;;;;;;10.07;3.67;;;;;;;2.36;80.12;101198.09;3516301;81;35087;-86
2021/04/03 22:24:24;;;;;;;11.13;3.70;;;;;;;2.25;80.29;101188.55;3518860;82;98177;-87
2021/04/03 22:29:25;;;;;;;11.60;3.33;;;;;;;2.18;80.36;101201.75;3522422;81;35506;-86
2021/04/03 22:34:26;;;;;;;12.47;3.65;;;;;;;2.09;80.48;101208.98;3554003;79;98475;-87
2021/04/03 22:39:26;;;;;;;14.57;4.23;;;;;;;1.98;80.98;101210.28;3521300;82;33908;-87
2021/04/03 22:44:28;;;;;;;11.90;4.00;;;;;;;1.89;81.34;101214.25;3514983;81;98502;-87
2021/04/03 22:49:29;;;;;;;11.90;3.73;;;;;;;1.81;81.39;101210.06;3515829;82;32793;-87
2021/04/03 22:54:30;;;;;;;12.03;3.27;;;;;;;1.72;81.41;101206.42;3510301;82;98391;-87
2021/04/03 22:59:32;;;;;;;15.10;4.10;;;;;;;1.64;81.77;101206.56;3519224;82;32736;-87
2021/04/03 23:04:34;;;;;;;9.63;3.63;;;;;;;1.60;81.91;101208.25;3518484;80;98432;-87
2021/04/03 23:09:36;;;;;;;12.67;3.83;;;;;;;1.59;81.69;101208.01;3576507;80;33176;-87
2021/04/03 23:14:37;;;;;;;11.53;4.40;;;;;;;1.58;81.66;101207.76;3556896;80;98577;-87
2021/04/03 23:19:38;;;;;;;10.70;3.20;;;;;;;1.57;81.81;101204.80;3572804;80;34188;-87
2021/04/03 23:24:39;;;;;;;14.20;3.45;;;;;;;1.50;81.91;101203.03;3567635;80;98219;-87
2021/04/03 23:29:40;;;;;;;14.70;4.47;;;;;;;1.42;82.14;101211.84;3506340;82;33866;-87